Time;durP1;ratioP1;P1;durP2;ratioP2;P2;SDS_P1;SDS_P2;PMS_P1;PMS_P2;Temp;Humidity;BMP_temperature;BMP_pressure;BME280_temperature;BME280_humidity;BME280_pressure;Samples;Min_cycle;Max_cycle;Signal;HPM_P1;HPM_P2
2022/09/29 00:01:25;;;;;;;;;;;;;;;10.44;69.16;99439.59;5129827;28;20039;-82
2022/09/29 00:03:56;;;;;;;0.20;0.20;;;;;;;10.37;69.55;99441.66;5146424;28;19925;-82
2022/09/29 00:06:28;;;;;;;0.45;0.45;;;;;;;10.32;69.90;99433.97;5131674;28;20097;-83
2022/09/29 00:09:10;;;;;;;0.38;0.38;;;;;;;10.28;69.86;99432.44;5135823;28;20102;-84
2022/09/29 00:11:44;;;;;;;15.63;0.93;;;;;;;10.24;69.34;99436.09;5135059;28;20023;-84
2022/09/29 00:14:15;;;;;;;1.25;0.73;;;;;;;10.19;69.96;99433.69;5108702;28;20078;-84
2022/09/29 00:16:45;;;;;;;0.20;0.20;;;;;;;10.18;69.79;99441.63;5150361;28;20035;-84
2022/09/29 00:19:16;;;;;;;0.35;0.35;;;;;;;10.17;70.19;99445.16;5114815;28;20050;-82
2022/09/29 00:21:48;;;;;;;0.30;0.30;;;;;;;10.14;69.43;99437.44;5137532;28;20059;-82
2022/09/29 00:24:25;;;;;;;0.47;0.47;;;;;;;10.14;69.72;99440.06;5100612;28;20051;-84
2022/09/29 00:26:56;;;;;;;0.40;0.40;;;;;;;10.07;70.14;99432.47;5137060;28;20034;-84
2022/09/29 00:29:29;;;;;;;0.30;0.30;;;;;;;10.09;69.34;99442.88;5127226;28;20038;-82
2022/09/29 00:32:03;;;;;;;0.30;0.30;;;;;;;10.08;69.49;99436.81;5117279;28;20023;-84
2022/09/29 00:34:42;;;;;;;0.40;0.40;;;;;;;10.04;69.17;99437.00;5130159;28;20057;-82
2022/09/29 00:37:13;;;;;;;0.30;0.30;;;;;;;10.00;69.76;99432.84;5111488;28;20039;-82
2022/09/29 00:39:46;;;;;;;0.40;0.40;;;;;;;10.02;69.53;99429.22;5108506;28;20073;-84
2022/09/29 00:42:18;;;;;;;0.95;0.95;;;;;;;9.97;69.75;99433.81;5126859;28;20051;-84
2022/09/29 00:45:24;;;;;;;0.40;0.40;;;;;;;9.95;69.19;99430.44;5146588;28;20058;-83
2022/09/29 00:48:04;;;;;;;0.35;0.35;;;;;;;9.90;69.38;99429.78;5039419;29;20538;-82
2022/09/29 00:50:47;;;;;;;0.57;0.57;;;;;;;9.90;69.08;99432.38;5101008;28;20482;-82
2022/09/29 00:53:20;;;;;;;0.63;0.63;;;;;;;9.89;69.03;99435.91;5093764;28;20286;-82
2022/09/29 00:56:09;;;;;;;0.73;0.73;;;;;;;9.85;69.12;99437.84;5119765;28;20054;-84
2022/09/29 00:58:53;;;;;;;0.30;0.30;;;;;;;9.79;69.33;99442.53;5139881;28;20038;-84
2022/09/29 01:01:27;;;;;;;0.47;0.47;;;;;;;9.75;69.35;99433.94;5150812;28;20620;-84
2022/09/29 01:04:22;;;;;;;0.50;0.50;;;;;;;9.76;69.11;99441.72;5138264;28;20098;-84
2022/09/29 01:06:56;;;;;;;0.40;0.40;;;;;;;9.74;69.32;99440.94;5114892;28;20608;-81
2022/09/29 01:09:32;;;;;;;3.60;1.63;;;;;;;9.71;68.80;99441.06;5115668;28;20065;-80
2022/09/29 01:12:03;;;;;;;0.52;0.52;;;;;;;9.68;68.86;99440.34;5110344;28;20031;-82
2022/09/29 01:14:36;;;;;;;0.95;0.95;;;;;;;9.67;68.69;99431.66;5127244;28;20370;-81
2022/09/29 01:17:07;;;;;;;1.13;1.05;;;;;;;9.68;68.93;99435.97;5130711;28;20403;-81
2022/09/29 01:20:19;;;;;;;0.63;0.60;;;;;;;9.59;68.94;99439.84;5131695;28;20066;-82
2022/09/29 01:23:14;;;;;;;0.45;0.45;;;;;;;9.62;68.93;99438.88;5132608;28;20035;-81
2022/09/29 01:26:17;;;;;;;0.40;0.40;;;;;;;9.57;69.54;99430.34;5109137;28;20042;-81
2022/09/29 01:29:19;;;;;;;1.35;1.30;;;;;;;9.54;68.91;99433.13;5138584;28;20098;-82
2022/09/29 01:32:28;;;;;;;0.70;0.70;;;;;;;9.50;68.93;99445.50;5142904;28;20609;-82
2022/09/29 01:35:36;;;;;;;0.60;0.60;;;;;;;9.51;69.04;99441.94;5044464;28;20514;-82
2022/09/29 01:38:48;;;;;;;0.45;0.45;;;;;;;9.46;69.05;99443.91;5117548;28;20037;-83
2022/09/29 01:41:41;;;;;;;0.30;0.30;;;;;;;9.43;69.55;99450.13;5132304;28;20053;-83
2022/09/29 01:44:39;;;;;;;0.43;0.43;;;;;;;9.41;69.16;99446.72;5151575;28;20050;-84
2022/09/29 01:47:16;;;;;;;0.50;0.50;;;;;;;9.41;69.10;99451.97;5153796;28;20043;-83
2022/09/29 01:49:55;;;;;;;0.40;0.40;;;;;;;9.41;69.06;99451.97;5110320;28;20474;-84
2022/09/29 01:52:33;;;;;;;3.72;0.68;;;;;;;9.39;69.22;99452.94;5115617;28;20038;-83
2022/09/29 01:55:16;;;;;;;1.15;1.05;;;;;;;9.30;69.68;99459.41;5113920;28;20058;-81
2022/09/29 01:57:56;;;;;;;0.35;0.35;;;;;;;9.32;69.68;99454.97;5152379;28;20608;-83
2022/09/29 02:00:30;;;;;;;0.50;0.50;;;;;;;9.29;69.27;99453.34;5120453;28;20058;-82
2022/09/29 02:03:23;;;;;;;0.40;0.40;;;;;;;9.23;69.71;99450.09;5157092;28;20163;-83
2022/09/29 02:06:02;;;;;;;0.65;0.65;;;;;;;9.19;69.82;99448.56;5113017;28;20135;-83
2022/09/29 02:08:39;;;;;;;0.40;0.40;;;;;;;9.23;69.51;99450.97;5140894;28;20047;-83
2022/09/29 02:11:12;;;;;;;0.40;0.40;;;;;;;9.24;69.30;99455.31;5133339;28;20043;-81
2022/09/29 02:14:03;;;;;;;0.50;0.50;;;;;;;9.21;69.45;99454.59;5110426;28;20042;-81
2022/09/29 02:16:43;;;;;;;0.45;0.45;;;;;;;9.17;69.23;99458.22;5152897;28;20053;-83
2022/09/29 02:19:21;;;;;;;0.40;0.40;;;;;;;9.14;69.12;99460.03;5120157;28;20042;-82
2022/09/29 02:21:53;;;;;;;0.70;0.70;;;;;;;9.13;69.05;99457.50;5142752;28;20035;-83
2022/09/29 02:24:24;;;;;;;0.77;0.77;;;;;;;9.11;69.15;99460.19;5122951;28;20076;-83
2022/09/29 02:26:56;;;;;;;0.20;0.20;;;;;;;9.11;69.44;99454.09;5138434;28;20090;-83
2022/09/29 02:29:26;;;;;;;0.38;0.38;;;;;;;9.14;69.07;99456.59;5126729;28;20097;-83
2022/09/29 02:32:01;;;;;;;0.30;0.30;;;;;;;9.18;69.14;99462.53;5106939;28;20079;-82
2022/09/29 02:34:42;;;;;;;0.35;0.35;;;;;;;9.16;69.01;99461.75;5098886;28;20109;-83
2022/09/29 02:37:36;;;;;;;0.65;0.65;;;;;;;9.15;68.84;99460.91;5126870;28;20099;-83
2022/09/29 02:40:25;;;;;;;0.82;0.82;;;;;;;9.13;69.18;99463.56;5140624;28;20217;-82
2022/09/29 02:42:59;;;;;;;0.75;0.75;;;;;;;9.09;69.30;99456.78;5130707;28;20095;-83
2022/09/29 02:45:29;;;;;;;;;;;;;;;9.04;69.65;99463.97;5132670;28;20061;-82
2022/09/29 02:48:26;;;;;;;0.40;0.40;;;;;;;9.07;69.17;99460.38;5128605;28;19914;-80
2022/09/29 02:51:30;;;;;;;1.58;1.02;;;;;;;9.07;69.47;99463.00;5069973;28;20059;-81
2022/09/29 02:54:57;;;;;;;0.40;0.40;;;;;;;9.05;68.81;99457.81;5093120;28;20085;-80
2022/09/29 02:57:42;;;;;;;0.30;0.30;;;;;;;9.04;69.12;99458.75;5050975;29;20040;-80
2022/09/29 03:00:16;;;;;;;2.08;0.63;;;;;;;9.03;68.66;99457.03;5089946;28;20129;-80
2022/09/29 03:02:49;;;;;;;0.30;0.30;;;;;;;9.07;68.48;99455.16;5124229;28;20039;-80
2022/09/29 03:05:21;;;;;;;0.30;0.30;;;;;;;8.99;68.40;99463.28;5107413;28;20051;-80
2022/09/29 03:07:53;;;;;;;0.30;0.30;;;;;;;8.92;68.60;99454.00;5108321;28;20444;-80
2022/09/29 03:10:23;;;;;;;0.30;0.30;;;;;;;8.89;69.04;99461.97;5109205;28;20538;-80
2022/09/29 03:12:54;;;;;;;0.30;0.30;;;;;;;8.90;69.17;99467.16;5138570;28;20078;-81
2022/09/29 03:15:27;;;;;;;0.30;0.30;;;;;;;8.87;69.45;99463.81;5130116;28;20311;-80
2022/09/29 03:18:01;;;;;;;;;;;;;;;8.87;69.38;99461.19;5125584;28;20498;-80
2022/09/29 03:20:33;;;;;;;0.30;0.30;;;;;;;8.82;69.52;99459.59;5113622;28;19946;-80
2022/09/29 03:23:04;;;;;;;0.40;0.40;;;;;;;8.84;69.11;99464.78;5109884;28;20043;-80
2022/09/29 03:25:34;;;;;;;0.85;0.85;;;;;;;8.84;69.38;99461.31;5130929;28;20038;-80
2022/09/29 03:28:12;;;;;;;1.10;1.00;;;;;;;8.85;68.76;99463.00;5111272;28;20031;-80
2022/09/29 03:30:46;;;;;;;0.30;0.30;;;;;;;8.82;69.15;99462.22;5126427;28;20042;-80
2022/09/29 03:33:23;;;;;;;0.50;0.50;;;;;;;8.84;69.08;99456.06;5124706;28;20019;-80
2022/09/29 03:35:55;;;;;;;0.98;0.90;;;;;;;8.78;68.92;99463.25;5126756;28;20049;-80
2022/09/29 03:38:25;;;;;;;0.77;0.77;;;;;;;8.77;68.83;99456.31;5096982;28;20049;-80
2022/09/29 03:40:56;;;;;;;1.17;1.15;;;;;;;8.68;69.21;99459.31;5092066;28;20125;-81
2022/09/29 03:43:26;;;;;;;0.85;0.85;;;;;;;8.64;69.31;99455.09;5090980;28;20038;-80
2022/09/29 03:46:00;;;;;;;1.08;1.02;;;;;;;8.59;69.38;99454.44;5122238;28;20553;-80
2022/09/29 03:48:32;;;;;;;;;;;;;;;8.66;69.25;99463.72;5110521;28;20042;-80
2022/09/29 03:51:06;;;;;;;0.95;0.95;;;;;;;8.65;69.17;99465.50;5107190;28;20547;-80
2022/09/29 03:53:40;;;;;;;0.77;0.77;;;;;;;8.62;69.06;99467.41;5124498;28;20047;-81
2022/09/29 03:56:10;;;;;;;;;;;;;;;8.62;68.65;99468.22;5091512;28;20106;-80
2022/09/29 03:58:41;;;;;;;0.40;0.40;;;;;;;8.60;69.08;99474.44;5096444;28;19994;-80
2022/09/29 04:01:14;;;;;;;0.30;0.30;;;;;;;8.59;68.97;99467.50;5096133;28;20047;-80
2022/09/29 04:03:44;;;;;;;2.17;2.08;;;;;;;8.56;68.74;99471.09;5132126;28;20277;-80
2022/09/29 04:06:21;;;;;;;0.60;0.60;;;;;;;8.48;68.92;99476.59;5113140;28;20122;-79
2022/09/29 04:08:54;;;;;;;1.50;0.68;;;;;;;8.45;68.92;99470.59;5095999;28;20126;-80
2022/09/29 04:11:25;;;;;;;;;;;;;;;8.47;68.70;99479.28;5107371;28;20143;-80
2022/09/29 04:13:55;;;;;;;0.20;0.20;;;;;;;8.46;68.91;99483.66;5125970;28;20617;-81
2022/09/29 04:16:27;;;;;;;0.40;0.40;;;;;;;8.40;68.96;99481.25;5090074;28;20047;-82
2022/09/29 04:18:58;;;;;;;0.30;0.30;;;;;;;8.39;68.66;99482.16;5106198;28;20041;-82
2022/09/29 04:21:29;;;;;;;0.40;0.40;;;;;;;8.39;68.68;99487.38;5137955;28;20043;-80
2022/09/29 04:24:00;;;;;;;0.40;0.40;;;;;;;8.37;68.65;99483.13;5121463;28;20042;-82
2022/09/29 04:26:30;;;;;;;0.30;0.30;;;;;;;8.31;68.30;99485.06;5107417;28;20038;-82
2022/09/29 04:29:01;;;;;;;0.50;0.50;;;;;;;8.34;68.20;99489.31;5105183;28;20542;-82
2022/09/29 04:31:31;;;;;;;1.00;0.68;;;;;;;8.23;68.03;99486.25;5135723;28;20045;-81
2022/09/29 04:34:04;;;;;;;0.55;0.55;;;;;;;8.18;68.49;99497.72;5117268;28;20126;-81
2022/09/29 04:36:38;;;;;;;0.60;0.60;;;;;;;8.17;68.63;99500.41;5113589;28;20034;-82
2022/09/29 04:39:08;;;;;;;0.65;0.65;;;;;;;8.17;68.33;99490.81;5105525;28;20045;-82
2022/09/29 04:41:40;;;;;;;1.55;1.15;;;;;;;8.16;68.61;99491.72;5128264;28;20111;-83
2022/09/29 04:44:10;;;;;;;0.65;0.60;;;;;;;8.17;68.00;99501.25;5092519;28;20069;-81
2022/09/29 04:46:41;;;;;;;0.68;0.68;;;;;;;8.16;68.35;99501.31;5104837;28;20516;-81
2022/09/29 04:49:14;;;;;;;0.60;0.60;;;;;;;8.12;68.39;99503.19;5108786;28;20042;-80
2022/09/29 04:51:47;;;;;;;0.95;0.95;;;;;;;8.08;68.55;99505.97;5125386;28;20129;-81
2022/09/29 04:54:18;;;;;;;;;;;;;;;8.06;68.74;99510.41;5126888;28;20043;-81
2022/09/29 04:56:55;;;;;;;0.30;0.30;;;;;;;8.04;68.84;99500.00;5117189;28;19997;-82
2022/09/29 04:59:27;;;;;;;1.00;1.00;;;;;;;7.99;68.65;99500.16;5121561;28;20083;-82
2022/09/29 05:01:58;;;;;;;0.75;0.75;;;;;;;8.01;68.64;99497.50;5137165;28;20059;-81
2022/09/29 05:04:31;;;;;;;0.47;0.47;;;;;;;7.99;68.23;99504.53;5108987;28;20473;-81
2022/09/29 05:07:04;;;;;;;0.50;0.50;;;;;;;8.01;68.15;99508.81;5093286;28;20126;-81
2022/09/29 05:09:35;;;;;;;0.65;0.65;;;;;;;7.99;68.37;99509.75;5121305;28;20050;-82
2022/09/29 05:12:06;;;;;;;0.30;0.30;;;;;;;7.97;68.07;99519.44;5091985;28;20106;-83
2022/09/29 05:14:36;;;;;;;0.40;0.40;;;;;;;7.93;68.27;99520.44;5106730;28;20117;-83
2022/09/29 05:17:10;;;;;;;0.68;0.68;;;;;;;7.90;68.37;99525.75;5108952;28;20038;-81
2022/09/29 05:19:40;;;;;;;;;;;;;;;7.84;68.40;99530.28;5100643;28;20035;-83
2022/09/29 05:22:14;;;;;;;1.20;1.10;;;;;;;7.82;68.24;99529.47;5141617;28;19910;-81
2022/09/29 05:24:47;;;;;;;0.47;0.47;;;;;;;7.79;68.13;99529.59;5102452;28;20467;-82
2022/09/29 05:27:32;;;;;;;0.52;0.52;;;;;;;7.78;68.04;99533.13;5123434;28;20050;-81
2022/09/29 05:30:08;;;;;;;0.95;0.95;;;;;;;7.77;68.57;99547.06;5106182;28;20042;-81
2022/09/29 05:32:43;;;;;;;0.50;0.50;;;;;;;7.72;68.40;99533.34;5119159;28;20094;-81
2022/09/29 05:35:17;;;;;;;1.58;1.48;;;;;;;7.72;68.03;99541.19;5103270;28;20097;-81
2022/09/29 05:37:49;;;;;;;0.50;0.50;;;;;;;7.74;68.21;99549.78;5092072;28;20046;-82
2022/09/29 05:40:52;;;;;;;1.35;1.25;;;;;;;7.73;67.98;99550.69;5093698;28;20043;-82
2022/09/29 05:43:22;;;;;;;0.57;0.57;;;;;;;7.62;68.05;99550.22;5107907;28;20034;-81
2022/09/29 05:46:22;;;;;;;0.30;0.30;;;;;;;7.57;68.23;99552.97;5121408;28;20078;-82
2022/09/29 05:49:01;;;;;;;0.40;0.40;;;;;;;7.60;68.35;99557.25;5107926;28;20089;-81
2022/09/29 05:51:33;;;;;;;1.65;0.82;;;;;;;7.61;68.07;99553.72;5124773;28;20122;-81
2022/09/29 05:54:14;;;;;;;0.60;0.60;;;;;;;7.57;68.28;99555.59;5113771;28;20521;-81
2022/09/29 05:56:45;;;;;;;0.85;0.85;;;;;;;7.63;68.29;99563.22;5106557;28;20114;-81
2022/09/29 05:59:15;;;;;;;0.30;0.30;;;;;;;7.63;68.31;99557.16;5109622;28;20192;-81
2022/09/29 06:01:46;;;;;;;0.52;0.52;;;;;;;7.60;68.17;99565.06;5106953;28;20045;-82
2022/09/29 06:04:16;;;;;;;0.77;0.75;;;;;;;7.56;68.06;99565.16;5122579;28;20649;-81
2022/09/29 06:06:47;;;;;;;1.52;0.90;;;;;;;7.52;67.97;99563.56;5092698;28;20045;-81
2022/09/29 06:09:17;;;;;;;0.45;0.45;;;;;;;7.53;67.97;99570.50;5089668;28;20050;-82
2022/09/29 06:11:49;;;;;;;0.30;0.30;;;;;;;7.52;68.40;99563.56;5091183;28;20089;-80
2022/09/29 06:14:19;;;;;;;0.60;0.60;;;;;;;7.49;68.64;99558.44;5107421;28;20074;-80
2022/09/29 06:16:56;;;;;;;1.42;1.33;;;;;;;7.49;68.23;99563.66;5120166;28;20078;-81
2022/09/29 06:19:30;;;;;;;0.50;0.50;;;;;;;7.51;68.46;99567.06;5125201;28;20035;-81
2022/09/29 06:22:01;;;;;;;0.30;0.30;;;;;;;7.43;68.63;99561.25;5105184;28;20050;-81
2022/09/29 06:24:31;;;;;;;0.30;0.30;;;;;;;7.41;68.64;99565.66;5121682;28;20050;-83
2022/09/29 06:27:02;;;;;;;0.63;0.63;;;;;;;7.47;68.29;99573.31;5151224;28;20055;-81
2022/09/29 06:29:33;;;;;;;0.40;0.40;;;;;;;7.47;68.53;99570.72;5132566;28;20137;-80
2022/09/29 06:32:03;;;;;;;1.40;1.35;;;;;;;7.48;68.18;99577.59;5126321;28;20031;-81
2022/09/29 06:34:34;;;;;;;8.77;2.17;;;;;;;7.50;68.45;99575.81;5119749;28;20034;-82
2022/09/29 06:40:03;;;;;;;0.60;0.60;;;;;;;7.49;68.70;99578.47;5117812;28;20053;-80
2022/09/29 06:42:39;;;;;;;0.85;0.85;;;;;;;7.46;68.62;99574.22;5123848;28;20042;-81
2022/09/29 06:45:18;;;;;;;0.40;0.40;;;;;;;7.47;68.71;99581.16;5127388;28;20046;-82
2022/09/29 06:48:02;;;;;;;0.60;0.60;;;;;;;7.48;68.62;99582.81;5122445;28;20074;-80
2022/09/29 06:50:34;;;;;;;0.47;0.47;;;;;;;7.46;68.94;99589.00;5123311;28;20034;-81
2022/09/29 06:53:07;;;;;;;0.73;0.73;;;;;;;7.47;68.98;99591.59;5107625;28;20073;-80
2022/09/29 06:55:40;;;;;;;0.88;0.88;;;;;;;7.52;68.92;99589.66;5104790;28;20105;-80
2022/09/29 06:58:11;;;;;;;0.22;0.22;;;;;;;7.48;68.72;99595.03;5090281;28;20047;-82
2022/09/29 07:00:41;;;;;;;0.40;0.40;;;;;;;7.50;68.84;99596.69;5110187;28;20067;-80
2022/09/29 07:03:12;;;;;;;0.50;0.50;;;;;;;7.49;68.84;99589.75;5104634;28;20085;-80
2022/09/29 07:05:44;;;;;;;0.63;0.63;;;;;;;7.48;69.37;99598.50;5136085;28;20049;-81
2022/09/29 07:08:15;;;;;;;0.45;0.45;;;;;;;7.52;69.11;99597.50;5119708;28;20047;-80
2022/09/29 07:10:54;;;;;;;0.38;0.38;;;;;;;7.54;69.23;99597.44;5103100;28;20042;-81
2022/09/29 07:13:26;;;;;;;0.77;0.77;;;;;;;7.56;69.76;99599.09;5101927;28;20045;-80
2022/09/29 07:16:17;;;;;;;0.50;0.50;;;;;;;7.58;68.76;99596.47;5120654;28;20054;-80
2022/09/29 07:18:47;;;;;;;0.40;0.40;;;;;;;7.53;69.86;99596.59;5114337;28;20261;-80
2022/09/29 07:21:20;;;;;;;2.83;2.63;;;;;;;7.57;69.38;99603.41;5100454;28;20046;-80
2022/09/29 07:24:00;;;;;;;1.42;1.33;;;;;;;7.56;69.91;99601.72;5102054;28;20049;-81
2022/09/29 07:26:34;;;;;;;0.63;0.63;;;;;;;7.61;69.73;99608.53;5087382;28;20070;-80
2022/09/29 07:29:08;;;;;;;1.40;1.33;;;;;;;7.61;70.09;99601.56;5104813;28;20112;-79
2022/09/29 07:31:39;;;;;;;0.50;0.50;;;;;;;7.64;71.60;99603.25;5104396;28;20106;-81
2022/09/29 07:34:12;;;;;;;3.60;1.45;;;;;;;7.63;71.12;99606.75;5103169;28;20049;-81
2022/09/29 07:36:46;;;;;;;0.90;0.90;;;;;;;7.67;70.18;99603.13;5105192;28;20042;-80
2022/09/29 07:39:20;;;;;;;;;;;;;;;7.69;70.25;99612.59;5135999;28;20624;-80
2022/09/29 07:42:12;;;;;;;1.02;1.02;;;;;;;7.72;70.52;99611.66;5104902;28;19953;-80
2022/09/29 07:44:44;;;;;;;0.30;0.30;;;;;;;7.75;70.92;99615.94;5120310;28;20047;-81
2022/09/29 07:47:15;;;;;;;0.63;0.63;;;;;;;7.75;70.32;99615.94;5103295;28;20043;-80
2022/09/29 07:49:45;;;;;;;0.30;0.30;;;;;;;7.75;70.43;99627.22;5107160;28;20053;-81
2022/09/29 07:52:28;;;;;;;0.60;0.60;;;;;;;7.79;70.39;99620.13;5148858;28;20051;-81
2022/09/29 07:54:58;;;;;;;0.40;0.40;;;;;;;7.81;70.20;99620.94;5120251;28;20046;-82
2022/09/29 07:57:29;;;;;;;0.68;0.68;;;;;;;7.83;70.55;99625.22;5109599;28;20051;-81
2022/09/29 08:00:04;;;;;;;0.40;0.40;;;;;;;7.84;70.45;99629.53;5095184;28;20046;-81
2022/09/29 08:02:35;;;;;;;1.42;1.38;;;;;;;7.87;70.95;99629.44;5103153;28;20129;-81
2022/09/29 08:05:23;;;;;;;2.15;1.55;;;;;;;7.84;71.25;99626.91;5122058;28;20034;-81
2022/09/29 08:07:57;;;;;;;0.40;0.40;;;;;;;7.86;70.89;99635.56;5116315;28;20053;-81
2022/09/29 08:10:29;;;;;;;1.25;0.75;;;;;;;7.91;70.48;99637.16;5104344;28;20069;-81
2022/09/29 08:13:00;;;;;;;0.40;0.40;;;;;;;7.85;71.26;99631.25;5080907;28;20176;-81
2022/09/29 08:15:30;;;;;;;1.05;1.05;;;;;;;7.88;71.26;99644.22;5115351;28;20106;-81
2022/09/29 08:18:01;;;;;;;0.77;0.77;;;;;;;7.92;70.69;99641.47;5121726;28;20069;-82
2022/09/29 08:20:35;;;;;;;0.65;0.65;;;;;;;7.93;71.05;99646.66;5104094;28;20045;-82
2022/09/29 08:23:11;;;;;;;0.60;0.60;;;;;;;7.96;70.49;99645.72;5142077;28;20074;-82
2022/09/29 08:25:42;;;;;;;0.40;0.40;;;;;;;7.99;70.63;99645.59;5106514;28;20118;-82
2022/09/29 08:28:23;;;;;;;0.50;0.50;;;;;;;8.00;70.59;99648.16;5106464;28;20039;-82
2022/09/29 08:30:54;;;;;;;0.50;0.50;;;;;;;8.03;70.53;99652.44;5122407;28;20414;-82
2022/09/29 08:33:28;;;;;;;0.40;0.40;;;;;;;8.01;70.73;99652.50;5116914;28;20038;-81
2022/09/29 08:35:59;;;;;;;0.60;0.60;;;;;;;8.01;71.26;99651.63;5105272;28;20062;-82
2022/09/29 08:38:43;;;;;;;;;;;;;;;;;;;;;
2022/09/29 08:41:31;;;;;;;1.88;1.33;;;;;;;8.04;71.73;99659.38;5114610;28;20091;-82
2022/09/29 08:44:17;;;;;;;0.38;0.38;;;;;;;8.10;72.48;99664.38;5118743;28;20039;-82
2022/09/29 08:46:56;;;;;;;0.93;0.93;;;;;;;8.08;72.46;99654.88;5104765;28;20089;-82
2022/09/29 08:50:02;;;;;;;0.75;0.75;;;;;;;8.12;72.79;99662.56;5128596;28;20043;-82
2022/09/29 08:52:39;;;;;;;0.80;0.80;;;;;;;8.15;74.23;99667.66;5101121;28;20061;-83
2022/09/29 08:55:16;;;;;;;0.77;0.77;;;;;;;8.17;75.84;99665.88;5083517;28;20051;-83
2022/09/29 08:57:49;;;;;;;0.70;0.70;;;;;;;8.25;73.96;99667.34;5096183;28;20401;-81
2022/09/29 09:00:53;;;;;;;2.15;0.98;;;;;;;8.30;74.09;99670.69;5100814;28;20057;-82
2022/09/29 09:04:07;;;;;;;0.50;0.50;;;;;;;8.37;75.18;99668.69;5032399;28;20044;-82
2022/09/29 09:07:22;;;;;;;1.10;1.10;;;;;;;8.49;73.91;99677.00;5103342;28;20102;-82
2022/09/29 09:10:16;;;;;;;0.45;0.45;;;;;;;8.54;75.70;99668.16;5097723;28;20047;-82
2022/09/29 09:13:03;;;;;;;0.70;0.70;;;;;;;8.56;75.86;99667.19;5119299;28;20047;-82
2022/09/29 09:15:59;;;;;;;0.52;0.52;;;;;;;8.64;77.56;99674.75;5117701;28;20057;-82
2022/09/29 09:19:11;;;;;;;0.65;0.65;;;;;;;8.69;77.23;99672.81;5108424;28;20050;-82
2022/09/29 09:21:46;;;;;;;0.50;0.50;;;;;;;8.75;77.75;99667.38;5119320;28;20039;-82
2022/09/29 09:24:33;;;;;;;0.63;0.63;;;;;;;8.89;78.50;99673.84;5081764;28;20034;-82
2022/09/29 09:27:07;;;;;;;0.35;0.35;;;;;;;8.89;78.15;99669.47;5098114;28;20031;-82
2022/09/29 09:29:56;;;;;;;;;;;;;;;;;;;;;
2022/09/29 09:32:36;;;;;;;2.53;1.20;;;;;;;9.05;78.12;99677.59;5105284;28;20086;-82
2022/09/29 09:35:30;;;;;;;0.63;0.50;;;;;;;9.07;77.87;99682.78;5115528;28;20446;-82
2022/09/29 09:38:05;;;;;;;1.70;1.42;;;;;;;9.16;78.83;99682.44;5110412;28;20062;-82
2022/09/29 09:40:50;;;;;;;0.20;0.20;;;;;;;9.26;77.41;99681.16;5108604;28;20422;-82
2022/09/29 09:43:32;;;;;;;1.65;1.15;;;;;;;9.36;77.01;99672.97;5074626;28;20451;-82
2022/09/29 09:46:22;;;;;;;0.50;0.50;;;;;;;9.35;77.53;99677.34;5106989;28;20076;-81
2022/09/29 09:49:43;;;;;;;0.52;0.52;;;;;;;9.38;76.99;99674.59;5122845;28;20161;-82
2022/09/29 09:52:37;;;;;;;0.70;0.70;;;;;;;9.57;76.68;99671.25;5105459;29;20044;-82
2022/09/29 09:55:33;;;;;;;0.70;0.70;;;;;;;9.61;77.41;99671.09;5068498;29;20078;-82
2022/09/29 09:58:29;;;;;;;0.40;0.40;;;;;;;9.76;76.42;99672.25;5115311;28;20046;-82
2022/09/29 10:01:11;;;;;;;1.15;1.05;;;;;;;9.88;76.03;99672.63;5119371;28;20125;-83
2022/09/29 10:03:42;;;;;;;0.30;0.30;;;;;;;9.89;76.62;99677.84;5120791;28;20047;-82
2022/09/29 10:06:12;;;;;;;0.65;0.65;;;;;;;9.92;75.59;99677.69;5106233;28;20050;-82
2022/09/29 10:08:43;;;;;;;0.95;0.95;;;;;;;9.94;76.24;99677.66;5132671;28;20038;-81
2022/09/29 10:11:23;;;;;;;0.43;0.43;;;;;;;9.93;76.50;99679.41;5103809;28;20050;-82
2022/09/29 10:14:14;;;;;;;0.40;0.40;;;;;;;10.04;76.29;99678.94;5120825;28;20043;-82
2022/09/29 10:16:59;;;;;;;0.47;0.47;;;;;;;10.08;76.62;99675.31;5121973;28;20071;-81
2022/09/29 10:20:04;;;;;;;0.50;0.50;;;;;;;10.24;76.45;99672.03;5104810;28;20058;-82
2022/09/29 10:22:35;;;;;;;0.63;0.55;;;;;;;10.23;76.85;99670.31;5107524;28;20344;-82
2022/09/29 10:25:18;;;;;;;0.93;0.93;;;;;;;10.28;76.69;99667.50;5107081;28;20050;-81
2022/09/29 10:27:58;;;;;;;0.77;0.77;;;;;;;10.32;76.06;99680.41;5107191;28;20416;-84
2022/09/29 10:30:34;;;;;;;0.50;0.50;;;;;;;10.33;76.13;99676.88;5117618;28;20082;-81
2022/09/29 10:33:10;;;;;;;0.63;0.63;;;;;;;10.40;75.91;99680.13;5119023;28;20034;-82
2022/09/29 10:35:46;;;;;;;0.50;0.50;;;;;;;10.38;75.26;99690.66;5114359;28;20471;-81
2022/09/29 10:38:24;;;;;;;0.52;0.52;;;;;;;10.43;75.51;99687.00;5134531;28;20504;-80
2022/09/29 10:41:02;;;;;;;0.30;0.30;;;;;;;10.48;75.00;99688.53;5047999;28;20058;-81
2022/09/29 10:43:43;;;;;;;0.40;0.40;;;;;;;10.51;74.93;99685.75;5113548;28;20050;-84
2022/09/29 10:46:49;;;;;;;0.60;0.60;;;;;;;10.69;74.75;99692.00;5061445;29;20115;-82
2022/09/29 10:49:22;;;;;;;0.20;0.20;;;;;;;10.71;73.84;99692.75;5137061;28;20070;-81
2022/09/29 10:52:03;;;;;;;0.40;0.35;;;;;;;10.78;73.67;99695.97;5084284;28;20061;-82
2022/09/29 10:54:45;;;;;;;0.60;0.60;;;;;;;10.74;73.76;99689.16;5072004;29;20047;-82
2022/09/29 10:57:24;;;;;;;0.30;0.30;;;;;;;10.83;73.36;99690.50;5121232;28;20038;-81
2022/09/29 10:59:57;;;;;;;0.57;0.57;;;;;;;10.81;74.20;99701.09;5087599;28;20123;-82
2022/09/29 11:02:38;;;;;;;0.50;0.50;;;;;;;10.82;72.39;99692.28;5100134;28;20128;-81
2022/09/29 11:05:24;;;;;;;1.17;0.60;;;;;;;10.89;72.46;99699.88;5107201;28;20056;-81
2022/09/29 11:07:59;;;;;;;1.05;1.05;;;;;;;10.95;73.28;99694.34;5102198;28;20091;-81
2022/09/29 11:10:37;;;;;;;0.30;0.30;;;;;;;11.01;72.22;99700.19;5055364;28;20047;-81
2022/09/29 11:13:17;;;;;;;0.30;0.30;;;;;;;11.03;70.47;99698.31;5092589;28;20038;-80
2022/09/29 11:15:48;;;;;;;0.38;0.38;;;;;;;11.07;71.49;99698.19;5141496;28;20053;-81
2022/09/29 11:18:25;;;;;;;0.63;0.63;;;;;;;11.11;71.64;99700.63;5117046;28;20047;-81
2022/09/29 11:21:21;;;;;;;0.77;0.77;;;;;;;11.16;70.96;99708.28;5117280;28;20035;-81
2022/09/29 11:24:18;;;;;;;0.40;0.40;;;;;;;11.32;71.78;99709.28;5067548;28;20039;-81
2022/09/29 11:27:24;;;;;;;0.50;0.50;;;;;;;11.28;70.05;99707.69;5076070;28;20042;-82
2022/09/29 11:30:16;;;;;;;0.20;0.20;;;;;;;11.33;70.84;99705.72;5113123;28;20109;-81
2022/09/29 11:33:20;;;;;;;0.60;0.60;;;;;;;11.36;70.35;99707.34;5087759;28;20126;-81
2022/09/29 11:36:17;;;;;;;0.40;0.40;;;;;;;11.41;70.26;99707.16;5121804;28;20554;-81
2022/09/29 11:38:47;;;;;;;0.35;0.35;;;;;;;11.46;70.22;99713.88;5102168;28;20031;-81
2022/09/29 11:42:03;;;;;;;0.70;0.70;;;;;;;11.47;69.26;99712.97;5105015;28;20081;-81
2022/09/29 11:45:00;;;;;;;2.72;0.70;;;;;;;11.52;70.08;99712.75;5129225;28;20051;-81
2022/09/29 11:48:08;;;;;;;0.25;0.25;;;;;;;11.54;69.69;99710.88;5115487;28;20042;-82
2022/09/29 11:51:00;;;;;;;0.40;0.40;;;;;;;11.56;68.24;99709.03;5136707;28;20039;-82
2022/09/29 11:54:05;;;;;;;0.20;0.20;;;;;;;11.56;69.33;99711.69;5118511;28;20381;-81
2022/09/29 11:57:05;;;;;;;0.40;0.40;;;;;;;11.58;68.62;99715.09;5118280;28;20520;-82
2022/09/29 12:00:06;;;;;;;0.30;0.30;;;;;;;11.59;68.79;99722.03;5102850;28;20039;-81
2022/09/29 12:03:17;;;;;;;0.20;0.20;;;;;;;11.59;69.03;99714.16;5104825;28;20076;-81
2022/09/29 12:06:18;;;;;;;0.40;0.40;;;;;;;11.67;68.36;99720.84;5083759;28;20053;-82
2022/09/29 12:09:10;;;;;;;0.88;0.88;;;;;;;11.62;68.74;99719.25;5121329;28;20086;-81
2022/09/29 12:11:53;;;;;;;0.35;0.35;;;;;;;11.70;66.92;99718.03;5129695;28;20035;-80
2022/09/29 12:14:37;;;;;;;0.37;0.37;;;;;;;11.75;66.11;99718.69;5134669;28;20057;-81
2022/09/29 12:17:17;;;;;;;0.30;0.30;;;;;;;11.82;64.87;99718.28;5114674;28;20042;-81
2022/09/29 12:20:02;;;;;;;0.30;0.30;;;;;;;11.82;66.89;99709.56;5122914;28;20051;-80
2022/09/29 12:22:36;;;;;;;0.43;0.43;;;;;;;12.24;65.67;99713.69;5093104;28;20093;-83
2022/09/29 12:25:19;;;;;;;0.40;0.40;;;;;;;12.12;66.54;99716.91;5099907;28;20069;-82
2022/09/29 12:27:55;;;;;;;0.75;0.75;;;;;;;12.19;64.38;99710.41;5117741;28;20039;-81
2022/09/29 12:30:29;;;;;;;0.20;0.20;;;;;;;12.25;65.50;99720.66;5110623;28;20050;-80
2022/09/29 12:33:23;;;;;;;2.47;0.50;;;;;;;12.27;65.91;99718.75;5125785;28;20066;-81
2022/09/29 12:39:32;;;;;;;0.32;0.32;;;;;;;12.58;64.89;99717.22;5147956;28;20042;-80
2022/09/29 12:42:25;;;;;;;0.20;0.20;;;;;;;12.67;64.77;99715.06;5133382;28;20039;-81
2022/09/29 12:45:48;;;;;;;0.35;0.35;;;;;;;12.93;65.80;99715.47;5096427;28;20039;-81
2022/09/29 12:48:42;;;;;;;0.20;0.20;;;;;;;12.94;65.92;99706.63;5090700;28;20054;-80
2022/09/29 12:51:26;;;;;;;0.43;0.43;;;;;;;13.11;65.36;99708.34;5104836;28;20031;-81